Aviation Digital Data Service (ADDS)

Output produced by TAFs form (0651 UTC 01 March 2015)
found at http://aviationweather.gov/adds/tafs/
 
KFMN 010531Z 0106/0206 08005KT P6SM VCSH BKN050 
     FM011100 VRB05KT 1SM -RASN BR OVC006 
     TEMPO 0111/0114 1/2SM SN FZFG OVC003 
     FM011900 06008KT P6SM VCSH SCT015 BKN035 
     FM012100 10009KT P6SM SCT050 SCT090 
     FM020100 VRB05KT P6SM SCT090